Time;durP1;ratioP1;P1;durP2;ratioP2;P2;SDS_P1;SDS_P2;PMS_P1;PMS_P2;Temp;Humidity;BMP_temperature;BMP_pressure;BME280_temperature;BME280_humidity;BME280_pressure;Samples;Min_cycle;Max_cycle;Signal;HPM_P1;HPM_P2
2022/04/15 00:02:24;;;;;;;;;;;23.20;30.00;;;;;;4968756;28;19930;-64
2022/04/15 00:04:51;;;;;;;;;;;23.10;30.00;;;;;;4968792;28;19926;-64
2022/04/15 00:07:18;;;;;;;;;;;23.10;30.00;;;;;;4968626;28;20294;-64
2022/04/15 00:09:45;;;;;;;;;;;23.10;30.00;;;;;;4968872;28;20003;-64
2022/04/15 00:12:17;;;;;;;;;;;23.10;30.10;;;;;;4968283;28;20443;-64
2022/04/15 00:14:44;;;;;;;;;;;23.10;30.10;;;;;;4968377;28;19984;-64
2022/04/15 00:17:12;;;;;;;;;;;23.10;30.10;;;;;;4967538;28;20012;-64
2022/04/15 00:19:39;;;;;;;;;;;23.10;30.10;;;;;;4964279;28;19977;-64
2022/04/15 00:22:07;;;;;;;;;;;23.10;30.10;;;;;;4968233;28;19937;-64
2022/04/15 00:24:34;;;;;;;;;;;23.00;30.70;;;;;;4968636;28;19926;-64
2022/04/15 00:27:01;;;;;;;;;;;23.10;30.20;;;;;;4951485;28;19964;-65
2022/04/15 00:29:28;;;;;;;;;;;23.10;30.20;;;;;;4968551;28;19969;-65
2022/04/15 00:31:55;;;;;;;;;;;23.00;30.10;;;;;;4951199;28;19983;-64
2022/04/15 00:34:23;;;;;;;;;;;23.10;30.20;;;;;;4968131;28;19979;-64
2022/04/15 00:36:50;;;;;;;;;;;23.00;30.10;;;;;;4968416;28;19987;-64
2022/04/15 00:39:17;;;;;;;;;;;23.10;30.30;;;;;;4967860;28;19933;-64
2022/04/15 00:41:44;;;;;;;;;;;23.10;30.10;;;;;;4968182;28;19926;-64
2022/04/15 00:44:11;;;;;;;;;;;23.10;30.10;;;;;;4968058;28;20055;-65
2022/04/15 00:46:38;;;;;;;;;;;23.10;30.10;;;;;;4968294;28;19957;-64
2022/04/15 00:49:05;;;;;;;;;;;23.10;30.10;;;;;;4967814;28;19930;-65
2022/04/15 00:51:35;;;;;;;;;;;23.10;30.10;;;;;;4964089;28;19926;-64
2022/04/15 00:54:03;;;;;;;;;;;23.10;30.00;;;;;;4967861;28;20375;-64
2022/04/15 00:56:35;;;;;;;;;;;23.10;30.10;;;;;;4968650;28;20291;-64
2022/04/15 00:59:04;;;;;;;;;;;23.10;30.40;;;;;;4967576;28;19926;-64
2022/04/15 01:01:31;;;;;;;;;;;23.10;30.10;;;;;;4967887;28;19926;-64
2022/04/15 01:03:59;;;;;;;;;;;23.10;30.10;;;;;;4967869;28;19933;-64
2022/04/15 01:06:29;;;;;;;;;;;23.10;30.10;;;;;;4967910;28;19966;-65
2022/04/15 01:08:58;;;;;;;;;;;23.10;30.10;;;;;;4967831;28;20697;-64
2022/04/15 01:11:27;;;;;;;;;;;23.10;30.10;;;;;;4967801;28;19942;-64
2022/04/15 01:13:56;;;;;;;;;;;23.10;30.10;;;;;;4967260;28;19926;-64
2022/04/15 01:16:24;;;;;;;;;;;23.10;30.10;;;;;;4967867;28;19926;-64
2022/04/15 01:18:51;;;;;;;;;;;23.10;30.20;;;;;;4967719;28;19926;-64
2022/04/15 01:21:19;;;;;;;;;;;23.10;30.20;;;;;;4965731;28;19957;-64
2022/04/15 01:23:47;;;;;;;;;;;23.10;30.20;;;;;;4964620;28;19980;-64
2022/04/15 01:26:16;;;;;;;;;;;23.10;30.20;;;;;;4967615;28;19931;-64
2022/04/15 01:28:43;;;;;;;;;;;23.00;30.10;;;;;;4967097;28;20382;-64
2022/04/15 01:31:11;;;;;;;;;;;23.10;30.20;;;;;;4967999;28;20382;-64
2022/04/15 01:33:38;;;;;;;;;;;23.10;30.20;;;;;;4966718;28;19940;-64
2022/04/15 01:36:05;;;;;;;;;;;23.00;30.10;;;;;;4967721;28;19926;-64
2022/04/15 01:38:32;;;;;;;;;;;23.10;30.40;;;;;;4967307;28;20337;-64
2022/04/15 01:40:59;;;;;;;;;;;23.10;30.20;;;;;;4967202;28;20382;-64
2022/04/15 01:43:26;;;;;;;;;;;23.00;30.20;;;;;;4967315;28;19930;-64
2022/04/15 01:45:53;;;;;;;;;;;23.00;30.20;;;;;;4950377;28;19926;-64
2022/04/15 01:48:20;;;;;;;;;;;23.00;30.20;;;;;;4967571;28;20323;-65
2022/04/15 01:50:47;;;;;;;;;;;23.00;30.20;;;;;;4966969;28;19972;-64
2022/04/15 01:53:15;;;;;;;;;;;23.00;30.30;;;;;;4964217;28;20336;-65
2022/04/15 01:55:43;;;;;;;;;;;22.90;30.30;;;;;;4966727;28;20283;-64
2022/04/15 01:58:10;;;;;;;;;;;23.00;30.40;;;;;;4967045;28;20008;-64
2022/04/15 02:00:37;;;;;;;;;;;22.90;30.40;;;;;;4967610;28;19958;-65
2022/04/15 02:03:04;;;;;;;;;;;22.90;30.40;;;;;;4966679;28;19969;-64
2022/04/15 02:05:31;;;;;;;;;;;22.90;30.40;;;;;;4967255;28;19933;-64
2022/04/15 02:07:59;;;;;;;;;;;22.90;30.50;;;;;;4966815;28;19972;-64
2022/04/15 02:10:26;;;;;;;;;;;22.90;30.50;;;;;;4966693;28;19930;-64
2022/04/15 02:12:53;;;;;;;;;;;22.90;30.50;;;;;;4966899;28;19952;-64
2022/04/15 02:15:20;;;;;;;;;;;22.90;30.50;;;;;;4966923;28;19938;-65
2022/04/15 02:17:47;;;;;;;;;;;22.90;30.60;;;;;;4966621;28;20055;-64
2022/04/15 02:20:14;;;;;;;;;;;22.90;30.50;;;;;;4966931;28;19927;-64
2022/04/15 02:22:41;;;;;;;;;;;22.90;30.50;;;;;;4966419;28;20398;-65
2022/04/15 02:25:08;;;;;;;;;;;22.90;30.50;;;;;;4962836;28;19930;-64
2022/04/15 02:27:35;;;;;;;;;;;22.90;30.50;;;;;;4966785;28;20019;-64
2022/04/15 02:30:03;;;;;;;;;;;22.90;30.50;;;;;;4966765;28;19926;-64
2022/04/15 02:32:30;;;;;;;;;;;22.90;30.40;;;;;;4966586;28;20388;-65
2022/04/15 02:34:57;;;;;;;;;;;22.90;30.40;;;;;;4966356;28;19930;-64
2022/04/15 02:37:24;;;;;;;;;;;22.90;30.40;;;;;;4966754;28;19926;-65
2022/04/15 02:39:52;;;;;;;;;;;22.90;30.40;;;;;;4965366;28;19965;-64
2022/04/15 02:42:19;;;;;;;;;;;22.90;30.40;;;;;;4966726;28;19930;-64
2022/04/15 02:44:47;;;;;;;;;;;22.90;30.40;;;;;;4966105;28;20017;-64
2022/04/15 02:47:14;;;;;;;;;;;22.90;30.40;;;;;;4966678;28;20575;-64
2022/04/15 02:49:41;;;;;;;;;;;22.90;30.40;;;;;;4966591;28;19926;-64
2022/04/15 02:52:08;;;;;;;;;;;22.90;30.40;;;;;;4966237;28;20200;-64
2022/04/15 02:54:35;;;;;;;;;;;22.90;30.40;;;;;;4949389;28;19926;-65
2022/04/15 02:57:03;;;;;;;;;;;22.90;30.40;;;;;;4961855;28;20365;-64
2022/04/15 02:59:30;;;;;;;;;;;22.90;30.40;;;;;;4966756;28;19987;-65
2022/04/15 03:01:57;;;;;;;;;;;22.90;30.40;;;;;;4966173;28;20005;-64
2022/04/15 03:04:25;;;;;;;;;;;22.90;30.40;;;;;;4966406;28;20020;-64
2022/04/15 03:06:52;;;;;;;;;;;22.90;30.40;;;;;;4966347;28;20449;-65
2022/04/15 03:09:21;;;;;;;;;;;22.90;30.40;;;;;;4965997;28;19926;-64
2022/04/15 03:11:48;;;;;;;;;;;22.90;30.40;;;;;;4966516;28;19926;-64
2022/04/15 03:14:17;;;;;;;;;;;22.90;30.50;;;;;;4965808;28;19976;-64
2022/04/15 03:16:44;;;;;;;;;;;22.90;30.50;;;;;;4965978;28;19938;-64
2022/04/15 03:19:11;;;;;;;;;;;22.90;30.50;;;;;;4966192;28;19926;-64
2022/04/15 03:21:39;;;;;;;;;;;22.90;30.50;;;;;;4965985;28;19926;-65
2022/04/15 03:24:06;;;;;;;;;;;22.90;30.50;;;;;;4966205;28;19926;-64
2022/04/15 03:26:33;;;;;;;;;;;22.90;30.50;;;;;;4965604;28;19962;-65
2022/04/15 03:29:00;;;;;;;;;;;22.90;30.50;;;;;;4961681;28;19984;-64
2022/04/15 03:31:27;;;;;;;;;;;22.90;30.50;;;;;;4965944;28;20361;-64
2022/04/15 03:33:55;;;;;;;;;;;22.90;30.50;;;;;;4965692;28;20021;-64
2022/04/15 03:36:22;;;;;;;;;;;22.90;30.50;;;;;;4966283;28;20301;-64
2022/04/15 03:38:49;;;;;;;;;;;22.90;30.50;;;;;;4965759;28;20055;-64
2022/04/15 03:41:16;;;;;;;;;;;22.80;30.50;;;;;;4965779;28;20354;-64
2022/04/15 03:43:43;;;;;;;;;;;22.80;30.60;;;;;;4965562;28;19926;-65
2022/04/15 03:46:10;;;;;;;;;;;22.80;30.60;;;;;;4965648;28;20021;-64
2022/04/15 03:48:37;;;;;;;;;;;22.80;30.60;;;;;;4965707;28;19934;-65
2022/04/15 03:51:04;;;;;;;;;;;22.80;30.70;;;;;;4949160;28;19926;-64
2022/04/15 03:53:31;;;;;;;;;;;22.80;30.70;;;;;;4969023;28;19976;-64
2022/04/15 03:55:58;;;;;;;;;;;22.80;30.70;;;;;;4968972;28;19930;-64
2022/04/15 03:58:25;;;;;;;;;;;22.80;30.70;;;;;;4968933;28;20284;-64
2022/04/15 04:00:55;;;;;;;;;;;22.70;30.70;;;;;;4964556;28;19926;-65
2022/04/15 04:03:22;;;;;;;;;;;22.80;30.80;;;;;;4968531;28;20293;-65
2022/04/15 04:05:49;;;;;;;;;;;22.80;30.80;;;;;;4968938;28;19962;-65
2022/04/15 04:08:16;;;;;;;;;;;22.80;30.80;;;;;;4968622;28;19966;-65
2022/04/15 04:10:44;;;;;;;;;;;22.80;30.80;;;;;;4968677;28;19960;-65
2022/04/15 04:13:11;;;;;;;;;;;22.80;30.70;;;;;;4968736;28;19973;-65
2022/04/15 04:15:38;;;;;;;;;;;22.80;30.70;;;;;;4968273;28;19985;-66
2022/04/15 04:18:05;;;;;;;;;;;22.80;30.70;;;;;;4968473;28;19933;-65
2022/04/15 04:20:32;;;;;;;;;;;22.90;30.70;;;;;;4968049;28;19961;-64
2022/04/15 04:23:00;;;;;;;;;;;22.80;30.60;;;;;;4968216;28;19930;-65
2022/04/15 04:25:27;;;;;;;;;;;22.90;30.60;;;;;;4968645;28;19934;-65
2022/04/15 04:27:55;;;;;;;;;;;22.90;30.60;;;;;;4968159;28;19926;-65
2022/04/15 04:30:22;;;;;;;;;;;22.90;30.60;;;;;;4967113;28;19980;-65
2022/04/15 04:32:49;;;;;;;;;;;22.90;30.60;;;;;;4965696;28;19926;-65
2022/04/15 04:35:18;;;;;;;;;;;22.90;30.50;;;;;;4968319;28;19933;-65
2022/04/15 04:37:45;;;;;;;;;;;22.90;30.50;;;;;;4967898;28;19952;-65
2022/04/15 04:40:13;;;;;;;;;;;22.90;30.50;;;;;;4968316;28;19979;-65
2022/04/15 04:42:40;;;;;;;;;;;22.90;30.50;;;;;;4968115;28;19933;-64
2022/04/15 04:45:10;;;;;;;;;;;23.00;30.50;;;;;;4968540;28;20341;-65
2022/04/15 04:47:38;;;;;;;;;;;23.00;30.50;;;;;;4967934;28;19960;-65
2022/04/15 04:50:08;;;;;;;;;;;23.00;30.50;;;;;;4968191;28;19980;-65
2022/04/15 04:52:36;;;;;;;;;;;23.00;30.40;;;;;;4967871;28;19930;-65
2022/04/15 04:55:03;;;;;;;;;;;23.00;30.40;;;;;;4968199;28;19930;-65
2022/04/15 04:57:30;;;;;;;;;;;23.00;30.40;;;;;;4968138;28;19930;-65
2022/04/15 04:59:58;;;;;;;;;;;23.00;30.40;;;;;;4968371;28;20328;-65
2022/04/15 05:02:25;;;;;;;;;;;23.10;30.40;;;;;;4962853;28;19927;-65
2022/04/15 05:04:52;;;;;;;;;;;23.00;30.40;;;;;;4967821;28;19979;-65
2022/04/15 05:07:19;;;;;;;;;;;23.10;30.30;;;;;;4968030;28;20337;-65
2022/04/15 05:09:46;;;;;;;;;;;23.10;30.20;;;;;;4967775;28;19972;-67
2022/04/15 05:12:13;;;;;;;;;;;23.10;30.20;;;;;;4967969;28;19995;-65
2022/04/15 05:14:40;;;;;;;;;;;23.10;30.10;;;;;;4967545;28;19930;-65
2022/04/15 05:17:07;;;;;;;;;;;23.10;30.10;;;;;;4968012;28;20004;-65
2022/04/15 05:19:41;;;;;;;;;;;23.10;30.00;;;;;;4968211;28;19927;-64
2022/04/15 05:22:08;;;;;;;;;;;23.10;30.00;;;;;;4967572;28;19982;-65
2022/04/15 05:24:35;;;;;;;;;;;23.10;30.00;;;;;;4967805;28;19930;-65
2022/04/15 05:27:02;;;;;;;;;;;23.10;30.00;;;;;;4967344;28;19956;-65
2022/04/15 05:29:30;;;;;;;;;;;23.20;30.00;;;;;;4967507;28;19927;-65
2022/04/15 05:31:57;;;;;;;;;;;23.20;30.00;;;;;;4967788;28;20448;-65
2022/04/15 05:34:24;;;;;;;;;;;23.20;30.00;;;;;;4962693;28;19926;-65
2022/04/15 05:36:51;;;;;;;;;;;23.20;30.00;;;;;;4967504;28;20021;-66
2022/04/15 05:39:19;;;;;;;;;;;23.20;30.00;;;;;;4950262;28;19973;-65
2022/04/15 05:41:46;;;;;;;;;;;23.20;30.00;;;;;;4967880;28;19926;-65
2022/04/15 05:44:14;;;;;;;;;;;23.20;30.00;;;;;;4966993;28;20400;-65
2022/04/15 05:46:42;;;;;;;;;;;23.30;30.00;;;;;;4967235;28;19933;-65
2022/04/15 05:49:14;;;;;;;;;;;23.30;29.90;;;;;;4950445;28;19926;-65
2022/04/15 05:51:42;;;;;;;;;;;23.30;29.90;;;;;;4966709;28;19926;-65
2022/04/15 05:54:09;;;;;;;;;;;23.30;29.90;;;;;;4967030;28;19953;-65
2022/04/15 05:56:36;;;;;;;;;;;23.40;29.90;;;;;;4967195;28;19971;-65
2022/04/15 05:59:04;;;;;;;;;;;23.40;29.80;;;;;;4966713;28;19926;-65
2022/04/15 06:01:31;;;;;;;;;;;23.40;29.80;;;;;;4967272;28;20422;-65
2022/04/15 06:03:58;;;;;;;;;;;23.40;29.80;;;;;;4967150;28;20038;-65
2022/04/15 06:06:26;;;;;;;;;;;23.40;29.70;;;;;;4962355;28;20332;-65
2022/04/15 06:08:53;;;;;;;;;;;23.50;29.70;;;;;;4966586;28;20456;-65
2022/04/15 06:11:21;;;;;;;;;;;23.50;29.70;;;;;;4966891;28;20393;-65
2022/04/15 06:13:49;;;;;;;;;;;23.50;29.60;;;;;;4953525;28;19931;-65
2022/04/15 06:16:17;;;;;;;;;;;23.50;29.60;;;;;;4945709;29;20001;-65
2022/04/15 06:18:45;;;;;;;;;;;23.60;29.60;;;;;;4947578;29;19931;-65
2022/04/15 06:21:30;;;;;;;;;;;23.60;29.60;;;;;;4947546;29;19974;-65
2022/04/15 06:23:57;;;;;;;;;;;23.60;29.50;;;;;;4947066;29;19927;-65
2022/04/15 06:26:24;;;;;;;;;;;23.60;29.50;;;;;;4947609;29;19980;-65
2022/04/15 06:28:51;;;;;;;;;;;23.70;29.50;;;;;;4947453;29;19973;-65
2022/04/15 06:31:18;;;;;;;;;;;23.70;29.50;;;;;;4947926;29;20397;-65
2022/04/15 06:33:45;;;;;;;;;;;23.70;29.50;;;;;;4946975;29;19939;-65
2022/04/15 06:36:12;;;;;;;;;;;23.70;29.50;;;;;;4947649;29;20064;-65
2022/04/15 06:38:39;;;;;;;;;;;23.70;29.50;;;;;;4942424;29;19953;-65
2022/04/15 06:41:06;;;;;;;;;;;23.80;29.50;;;;;;4947042;29;20264;-65
2022/04/15 06:43:33;;;;;;;;;;;23.80;29.40;;;;;;4947506;29;19926;-65
2022/04/15 06:46:02;;;;;;;;;;;23.80;29.30;;;;;;4947178;29;19981;-65
2022/04/15 06:48:29;;;;;;;;;;;23.90;29.30;;;;;;4947385;29;20394;-65
2022/04/15 06:50:56;;;;;;;;;;;23.90;29.30;;;;;;4947397;28;19966;-65
2022/04/15 06:53:24;;;;;;;;;;;23.90;29.30;;;;;;4947575;28;20008;-65
2022/04/15 06:55:51;;;;;;;;;;;23.90;29.30;;;;;;4947385;28;19988;-65
2022/04/15 06:58:18;;;;;;;;;;;23.90;29.20;;;;;;4946786;29;19930;-65
2022/04/15 07:00:46;;;;;;;;;;;23.90;29.20;;;;;;4947323;29;19930;-65
2022/04/15 07:03:15;;;;;;;;;;;24.00;29.30;;;;;;4946898;29;20440;-66
2022/04/15 07:05:44;;;;;;;;;;;24.00;29.30;;;;;;4929761;29;19927;-65
2022/04/15 07:08:11;;;;;;;;;;;24.00;29.30;;;;;;4943867;29;20551;-65
2022/04/15 07:10:39;;;;;;;;;;;24.10;29.30;;;;;;4946185;29;19966;-65
2022/04/15 07:13:06;;;;;;;;;;;24.10;29.30;;;;;;4930195;29;20721;-65
2022/04/15 07:15:33;;;;;;;;;;;24.10;29.30;;;;;;4946617;29;19967;-65
2022/04/15 07:18:03;;;;;;;;;;;24.10;29.30;;;;;;4946908;29;19985;-65
2022/04/15 07:20:31;;;;;;;;;;;24.10;29.20;;;;;;4946828;29;20339;-65
2022/04/15 07:22:59;;;;;;;;;;;24.20;29.30;;;;;;4947157;29;19927;-65
2022/04/15 07:25:26;;;;;;;;;;;24.20;29.30;;;;;;4947610;29;19972;-65
2022/04/15 07:27:53;;;;;;;;;;;24.20;29.30;;;;;;4949836;29;19926;-65
2022/04/15 07:30:20;;;;;;;;;;;24.30;29.30;;;;;;4950431;28;19980;-65
2022/04/15 07:32:47;;;;;;;;;;;24.30;29.20;;;;;;4950590;29;19933;-65
2022/04/15 07:35:14;;;;;;;;;;;24.30;29.20;;;;;;4949691;29;20340;-65
2022/04/15 07:37:41;;;;;;;;;;;24.30;29.20;;;;;;4950042;29;20345;-65
2022/04/15 07:40:10;;;;;;;;;;;24.40;29.10;;;;;;4945339;29;19926;-65
2022/04/15 07:42:37;;;;;;;;;;;24.40;29.10;;;;;;4950346;28;19927;-65
2022/04/15 07:45:05;;;;;;;;;;;24.50;29.00;;;;;;4949541;29;19933;-65
2022/04/15 07:47:32;;;;;;;;;;;24.50;29.00;;;;;;4949790;29;20363;-65
2022/04/15 07:50:15;;;;;;;;;;;24.60;28.90;;;;;;4949727;29;19927;-66
2022/04/15 07:52:43;;;;;;;;;;;24.60;28.90;;;;;;4949527;29;19934;-65
2022/04/15 07:55:10;;;;;;;;;;;24.70;28.90;;;;;;4949389;29;20420;-65
2022/04/15 07:57:37;;;;;;;;;;;24.70;28.80;;;;;;4949931;29;20299;-65
2022/04/15 08:00:04;;;;;;;;;;;24.70;28.70;;;;;;4949846;29;20260;-65
2022/04/15 08:02:31;;;;;;;;;;;24.70;28.60;;;;;;4950017;28;20354;-65
2022/04/15 08:04:58;;;;;;;;;;;24.70;28.50;;;;;;4949627;29;19926;-65
2022/04/15 08:07:25;;;;;;;;;;;24.70;28.50;;;;;;4949967;29;19980;-66
2022/04/15 08:09:53;;;;;;;;;;;24.80;28.40;;;;;;4949419;29;19962;-65
2022/04/15 08:12:20;;;;;;;;;;;24.80;28.40;;;;;;4945253;29;19926;-65
2022/04/15 08:14:47;;;;;;;;;;;24.80;28.30;;;;;;4949827;29;19927;-65
2022/04/15 08:17:15;;;;;;;;;;;24.90;28.30;;;;;;4949237;29;19931;-65
2022/04/15 08:19:42;;;;;;;;;;;24.80;28.20;;;;;;4949754;28;19976;-65
2022/04/15 08:22:10;;;;;;;;;;;24.90;28.70;;;;;;4949627;28;20341;-65
2022/04/15 08:24:42;;;;;;;;;;;24.90;28.20;;;;;;4949064;29;20371;-65
2022/04/15 08:27:09;;;;;;;;;;;24.90;28.20;;;;;;4949153;28;20032;-65
2022/04/15 08:29:38;;;;;;;;;;;25.00;28.20;;;;;;4949368;28;19934;-65
2022/04/15 08:32:07;;;;;;;;;;;25.00;28.10;;;;;;4949269;29;19934;-65
2022/04/15 08:34:36;;;;;;;;;;;25.00;28.10;;;;;;4948718;29;19966;-65
2022/04/15 08:37:03;;;;;;;;;;;25.00;28.00;;;;;;4948105;29;20413;-65
2022/04/15 08:39:31;;;;;;;;;;;25.00;28.00;;;;;;4948661;29;20350;-66
2022/04/15 08:41:58;;;;;;;;;;;25.10;28.10;;;;;;4948620;29;19972;-65
2022/04/15 08:44:25;;;;;;;;;;;25.10;28.00;;;;;;4945136;29;19927;-66
2022/04/15 08:46:52;;;;;;;;;;;25.10;28.10;;;;;;4949011;29;19927;-65
2022/04/15 08:49:19;;;;;;;;;;;25.20;28.10;;;;;;4949117;29;19993;-66
2022/04/15 08:51:48;;;;;;;;;;;25.20;28.10;;;;;;4931961;28;19926;-65
2022/04/15 08:54:15;;;;;;;;;;;25.20;28.10;;;;;;4949150;29;19926;-65
2022/04/15 08:56:43;;;;;;;;;;;25.20;28.10;;;;;;4949003;28;20159;-65
2022/04/15 08:59:10;;;;;;;;;;;25.30;28.10;;;;;;4948532;28;19930;-65
2022/04/15 09:01:37;;;;;;;;;;;25.30;28.10;;;;;;4948733;29;20371;-66
2022/04/15 09:04:04;;;;;;;;;;;25.30;28.10;;;;;;4948554;28;19934;-65
2022/04/15 09:06:32;;;;;;;;;;;25.40;28.20;;;;;;4948754;28;20105;-66
2022/04/15 09:09:06;;;;;;;;;;;25.40;28.60;;;;;;4948738;29;20301;-65
2022/04/15 09:11:37;;;;;;;;;;;25.40;28.10;;;;;;4948514;28;19927;-66
2022/04/15 09:14:12;;;;;;;;;;;25.40;28.10;;;;;;4947036;28;20006;-65
2022/04/15 09:16:45;;;;;;;;;;;25.40;28.10;;;;;;4945611;28;19927;-65
2022/04/15 09:19:12;;;;;;;;;;;25.40;28.10;;;;;;4948786;29;19930;-65
2022/04/15 09:21:41;;;;;;;;;;;25.40;28.10;;;;;;4948425;29;19938;-65
2022/04/15 09:24:10;;;;;;;;;;;25.50;28.10;;;;;;4948276;29;19957;-65
2022/04/15 09:26:38;;;;;;;;;;;25.50;28.10;;;;;;4948397;28;19978;-66
2022/04/15 09:29:05;;;;;;;;;;;25.50;28.10;;;;;;4948143;29;19930;-65
2022/04/15 09:31:32;;;;;;;;;;;25.50;28.10;;;;;;4948229;29;19972;-66
2022/04/15 09:33:59;;;;;;;;;;;25.50;28.60;;;;;;4948036;29;19927;-65
2022/04/15 09:36:35;;;;;;;;;;;25.50;28.10;;;;;;4947900;28;20025;-65
2022/04/15 09:39:04;;;;;;;;;;;25.50;28.10;;;;;;4953495;28;20366;-66
2022/04/15 09:41:31;;;;;;;;;;;25.60;28.20;;;;;;4964029;28;19926;-66
2022/04/15 09:44:00;;;;;;;;;;;25.60;28.20;;;;;;4967056;28;19927;-66
2022/04/15 09:46:30;;;;;;;;;;;25.60;28.20;;;;;;4944293;28;19926;-65
2022/04/15 09:49:01;;;;;;;;;;;25.60;28.20;;;;;;4948118;29;19927;-66
2022/04/15 09:51:36;;;;;;;;;;;25.60;28.20;;;;;;4956343;28;19975;-66
2022/04/15 09:54:05;;;;;;;;;;;25.60;28.10;;;;;;4966764;28;19933;-66
2022/04/15 09:56:34;;;;;;;;;;;25.70;28.20;;;;;;4967042;28;19926;-68
2022/04/15 09:59:04;;;;;;;;;;;25.70;28.20;;;;;;4966598;28;19926;-66
2022/04/15 10:01:32;;;;;;;;;;;25.70;28.20;;;;;;4967196;28;20378;-65
2022/04/15 10:04:00;;;;;;;;;;;25.70;28.20;;;;;;4966887;28;19930;-66
2022/04/15 10:06:27;;;;;;;;;;;25.70;28.20;;;;;;4967452;28;20444;-65
2022/04/15 10:09:03;;;;;;;;;;;25.70;28.20;;;;;;4966875;28;19926;-66
2022/04/15 10:11:35;;;;;;;;;;;25.70;28.20;;;;;;4950184;28;20400;-65
2022/04/15 10:14:03;;;;;;;;;;;25.70;28.20;;;;;;4966948;28;20021;-66
2022/04/15 10:16:32;;;;;;;;;;;25.70;28.30;;;;;;4966969;28;19930;-65
2022/04/15 10:19:00;;;;;;;;;;;25.70;28.30;;;;;;4962671;28;19949;-66
2022/04/15 10:21:37;;;;;;;;;;;25.70;28.30;;;;;;4967133;28;19926;-65
2022/04/15 10:24:07;;;;;;;;;;;25.80;28.30;;;;;;4966914;28;20283;-65
2022/04/15 10:26:41;;;;;;;;;;;25.80;28.30;;;;;;4966790;28;20013;-65
2022/04/15 10:29:09;;;;;;;;;;;25.80;28.20;;;;;;4966763;28;20332;-65
2022/04/15 10:31:44;;;;;;;;;;;25.80;28.30;;;;;;4966948;28;20013;-65
2022/04/15 10:34:13;;;;;;;;;;;25.80;28.30;;;;;;4966591;28;20382;-65
2022/04/15 10:36:45;;;;;;;;;;;25.80;28.20;;;;;;4966683;28;19930;-66
2022/04/15 10:39:14;;;;;;;;;;;25.90;28.30;;;;;;4966139;28;20120;-65
2022/04/15 10:41:55;;;;;;;;;;;25.90;28.20;;;;;;4965149;28;19972;-66
2022/04/15 10:44:35;;;;;;;;;;;25.90;28.20;;;;;;4963829;28;20280;-66
2022/04/15 10:47:13;;;;;;;;;;;26.00;28.20;;;;;;4964179;28;20393;-66
2022/04/15 10:49:52;;;;;;;;;;;26.00;28.20;;;;;;4959968;28;19930;-65
2022/04/15 10:52:24;;;;;;;;;;;26.00;28.20;;;;;;4964050;28;20149;-65
2022/04/15 10:54:52;;;;;;;;;;;26.00;28.10;;;;;;4964165;28;20323;-65
2022/04/15 10:57:21;;;;;;;;;;;26.00;28.10;;;;;;4964141;28;19969;-66
2022/04/15 11:02:38;;;;;;;;;;;26.00;28.10;;;;;;4953025;28;20124;-65
2022/04/15 11:05:06;;;;;;;;;;;26.00;28.10;;;;;;4966708;28;19930;-66
2022/04/15 11:07:46;;;;;;;;;;;26.00;28.10;;;;;;4967613;28;19954;-65
2022/04/15 11:10:17;;;;;;;;;;;26.10;28.10;;;;;;4965245;28;19926;-65
2022/04/15 11:12:45;;;;;;;;;;;26.10;28.10;;;;;;4967380;28;19926;-66
2022/04/15 11:15:12;;;;;;;;;;;26.10;28.10;;;;;;4967025;28;19977;-65
2022/04/15 11:17:41;;;;;;;;;;;26.20;28.10;;;;;;4967116;28;19962;-65
2022/04/15 11:20:08;;;;;;;;;;;26.30;28.10;;;;;;4950526;28;20005;-65
2022/04/15 11:22:39;;;;;;;;;;;26.30;28.00;;;;;;4954834;28;19930;-65
2022/04/15 11:25:07;;;;;;;;;;;26.40;28.00;;;;;;4966945;28;19930;-65
2022/04/15 11:27:35;;;;;;;;;;;26.30;27.90;;;;;;4967259;28;19926;-65
2022/04/15 11:30:05;;;;;;;;;;;26.40;28.00;;;;;;4966708;28;19926;-65
2022/04/15 11:32:44;;;;;;;;;;;26.50;28.00;;;;;;4967208;28;19973;-65
2022/04/15 11:35:11;;;;;;;;;;;26.50;27.90;;;;;;4966524;28;19957;-65
2022/04/15 11:37:38;;;;;;;;;;;26.50;27.90;;;;;;4966794;28;19930;-65
2022/04/15 11:40:05;;;;;;;;;;;26.50;28.00;;;;;;4966552;28;19979;-65
2022/04/15 11:42:33;;;;;;;;;;;26.50;28.00;;;;;;4966777;28;19980;-65
2022/04/15 11:45:03;;;;;;;;;;;26.50;28.00;;;;;;4966681;28;19967;-65
2022/04/15 11:47:31;;;;;;;;;;;26.50;28.00;;;;;;4966807;28;20390;-65
2022/04/15 11:49:57;;;;;;;;;;;26.50;28.10;;;;;;4966479;28;19926;-65
2022/04/15 11:52:30;;;;;;;;;;;26.50;28.10;;;;;;4965178;28;20466;-65
2022/04/15 11:54:58;;;;;;;;;;;26.50;28.20;;;;;;4963936;28;19980;-65
2022/04/15 11:57:29;;;;;;;;;;;26.50;28.20;;;;;;4966561;28;20044;-65
2022/04/15 11:59:56;;;;;;;;;;;26.40;28.10;;;;;;4966496;28;20104;-65
2022/04/15 12:02:25;;;;;;;;;;;26.50;28.20;;;;;;4966605;28;19969;-65
2022/04/15 12:04:53;;;;;;;;;;;26.50;28.20;;;;;;4965854;28;19926;-65
2022/04/15 12:07:21;;;;;;;;;;;26.50;28.20;;;;;;4966554;28;19983;-65
2022/04/15 12:09:49;;;;;;;;;;;26.50;28.20;;;;;;4966452;28;19926;-65
2022/04/15 12:12:16;;;;;;;;;;;26.40;28.20;;;;;;4965183;28;19992;-65
2022/04/15 12:14:43;;;;;;;;;;;26.50;28.20;;;;;;4964190;28;20337;-65
2022/04/15 12:17:17;;;;;;;;;;;26.50;28.20;;;;;;4959121;28;20314;-65
2022/04/15 12:19:44;;;;;;;;;;;26.50;28.30;;;;;;4946597;28;20169;-65
2022/04/15 12:22:11;;;;;;;;;;;26.50;28.30;;;;;;4930158;29;19958;-65
2022/04/15 12:24:39;;;;;;;;;;;26.50;28.30;;;;;;4942380;29;19980;-65
2022/04/15 12:27:06;;;;;;;;;;;26.50;28.30;;;;;;4946820;29;19930;-65
2022/04/15 12:29:51;;;;;;;;;;;26.50;28.30;;;;;;4947055;29;20018;-65
2022/04/15 12:32:32;;;;;;;;;;;26.50;28.40;;;;;;4947045;29;19926;-65
2022/04/15 12:35:11;;;;;;;;;;;26.50;28.40;;;;;;4930172;29;19934;-65
2022/04/15 12:37:41;;;;;;;;;;;26.50;28.40;;;;;;4947002;29;20338;-65
2022/04/15 12:40:30;;;;;;;;;;;26.40;28.40;;;;;;4946547;29;20287;-65
2022/04/15 12:43:11;;;;;;;;;;;26.40;28.50;;;;;;4946756;29;19933;-65
2022/04/15 12:45:49;;;;;;;;;;;26.40;28.50;;;;;;4947029;29;20171;-65
2022/04/15 12:48:16;;;;;;;;;;;26.40;28.50;;;;;;4946684;29;19927;-65
2022/04/15 12:50:44;;;;;;;;;;;26.40;28.60;;;;;;4946291;29;19930;-65
2022/04/15 12:53:18;;;;;;;;;;;26.40;28.60;;;;;;4946890;29;19934;-65
2022/04/15 12:55:46;;;;;;;;;;;26.30;28.60;;;;;;4942044;29;19926;-65
2022/04/15 12:58:23;;;;;;;;;;;26.30;28.70;;;;;;4946467;29;20117;-65
2022/04/15 13:00:53;;;;;;;;;;;26.30;28.70;;;;;;4946340;29;20382;-65
2022/04/15 13:03:21;;;;;;;;;;;26.20;28.70;;;;;;4946562;29;19930;-65
2022/04/15 13:05:49;;;;;;;;;;;26.20;28.80;;;;;;4929146;28;20355;-65
2022/04/15 13:08:17;;;;;;;;;;;26.20;28.80;;;;;;4929323;29;20329;-65
2022/04/15 13:10:45;;;;;;;;;;;26.20;28.80;;;;;;4946112;29;19957;-65
2022/04/15 13:13:32;;;;;;;;;;;26.20;28.80;;;;;;4945932;29;19927;-65
2022/04/15 13:15:59;;;;;;;;;;;26.20;28.80;;;;;;4945762;29;19927;-65
2022/04/15 13:18:26;;;;;;;;;;;26.20;29.00;;;;;;4945481;29;20045;-65
2022/04/15 13:20:53;;;;;;;;;;;26.20;28.90;;;;;;4945521;29;19930;-65
2022/04/15 13:23:20;;;;;;;;;;;26.20;28.90;;;;;;4945875;28;20014;-65
2022/04/15 13:25:47;;;;;;;;;;;26.10;28.90;;;;;;4946269;29;19966;-64
2022/04/15 13:28:14;;;;;;;;;;;26.20;29.00;;;;;;4941105;28;19981;-65
2022/04/15 13:30:42;;;;;;;;;;;26.10;29.00;;;;;;4945596;28;20445;-64
2022/04/15 13:33:09;;;;;;;;;;;26.10;29.00;;;;;;4946128;29;19926;-65
2022/04/15 13:35:37;;;;;;;;;;;26.10;29.10;;;;;;4945862;29;19973;-64
2022/04/15 13:38:04;;;;;;;;;;;26.10;29.10;;;;;;4945759;28;19970;-64
2022/04/15 13:40:32;;;;;;;;;;;26.00;29.10;;;;;;4945277;29;19984;-64
2022/04/15 13:42:59;;;;;;;;;;;26.00;29.20;;;;;;4945516;28;19926;-65
2022/04/15 13:45:26;;;;;;;;;;;26.00;29.20;;;;;;4945415;28;20195;-65
2022/04/15 13:47:53;;;;;;;;;;;26.00;29.30;;;;;;4945673;28;19932;-65
2022/04/15 13:50:20;;;;;;;;;;;26.00;29.30;;;;;;4945956;28;19978;-65
2022/04/15 13:58:23;;;;;;;;;;;26.00;29.50;;;;;;4944146;28;19992;-65
2022/04/15 14:00:50;;;;;;;;;;;26.00;29.50;;;;;;4942082;28;19965;-65
2022/04/15 14:03:18;;;;;;;;;;;26.00;29.50;;;;;;4945678;28;20383;-65
2022/04/15 14:05:46;;;;;;;;;;;26.00;29.60;;;;;;4944960;28;19980;-65
2022/04/15 14:08:13;;;;;;;;;;;26.00;29.60;;;;;;4945471;28;19974;-65
2022/04/15 14:10:41;;;;;;;;;;;26.10;29.60;;;;;;4944644;28;20398;-65
2022/04/15 14:13:08;;;;;;;;;;;26.00;29.70;;;;;;4945133;29;19966;-65
2022/04/15 14:15:35;;;;;;;;;;;26.00;29.70;;;;;;4945387;29;19926;-65
2022/04/15 14:18:04;;;;;;;;;;;26.00;29.70;;;;;;4944998;29;20014;-65
2022/04/15 14:20:31;;;;;;;;;;;26.00;29.70;;;;;;4945691;28;19930;-65
2022/04/15 14:22:58;;;;;;;;;;;26.00;29.90;;;;;;4944996;28;20375;-65
2022/04/15 14:25:26;;;;;;;;;;;25.90;29.90;;;;;;4945588;28;19965;-65
2022/04/15 14:27:52;;;;;;;;;;;25.90;30.00;;;;;;4945017;28;19968;-64
2022/04/15 14:30:19;;;;;;;;;;;25.90;30.00;;;;;;4943871;28;20378;-65
2022/04/15 14:32:46;;;;;;;;;;;25.90;30.00;;;;;;4941990;28;19930;-65